Time;durP1;ratioP1;P1;durP2;ratioP2;P2;SDS_P1;SDS_P2;PMS_P1;PMS_P2;Temp;Humidity;BMP_temperature;BMP_pressure;BME280_temperature;BME280_humidity;BME280_pressure;Samples;Min_cycle;Max_cycle;Signal;HPM_P1;HPM_P2
2021/10/20 00:01:51;;;;;;;0.20;0.20;;;;;;;14.75;100.00;100351.47;5088775;28;20047;-83
2021/10/20 00:04:25;;;;;;;0.20;0.20;;;;;;;14.84;100.00;100341.34;5090777;28;20048;-82
2021/10/20 00:06:59;;;;;;;0.17;0.17;;;;;;;14.79;100.00;100334.09;5085231;28;20392;-83
2021/10/20 00:09:32;;;;;;;0.20;0.20;;;;;;;14.67;100.00;100330.34;5088825;28;20056;-83
2021/10/20 00:12:06;;;;;;;0.30;0.30;;;;;;;14.61;100.00;100326.88;5088842;28;20052;-83
2021/10/20 00:14:40;;;;;;;0.20;0.20;;;;;;;14.60;100.00;100334.28;5084658;28;20044;-84
2021/10/20 00:17:13;;;;;;;0.20;0.20;;;;;;;14.67;100.00;100333.09;5083201;28;20060;-84
2021/10/20 00:19:50;;;;;;;0.20;0.20;;;;;;;14.73;100.00;100326.31;5080621;28;20056;-83
2021/10/20 00:22:23;;;;;;;;;;;;;;;14.71;100.00;100325.84;5087067;28;20047;-83
2021/10/20 00:24:56;;;;;;;0.20;0.20;;;;;;;14.63;100.00;100321.94;5084556;28;19928;-84
2021/10/20 00:27:29;;;;;;;0.20;0.20;;;;;;;14.63;100.00;100321.94;5098411;28;20056;-83
2021/10/20 00:30:03;;;;;;;0.38;0.30;;;;;;;14.66;100.00;100312.28;5082415;28;20055;-84
2021/10/20 00:32:36;;;;;;;0.20;0.20;;;;;;;14.61;100.00;100308.53;5085472;28;20074;-82
2021/10/20 00:35:07;;;;;;;0.30;0.30;;;;;;;14.62;100.00;100312.94;5080075;28;20052;-81
2021/10/20 00:37:40;;;;;;;0.20;0.20;;;;;;;14.61;100.00;100300.31;5086439;28;20055;-82
2021/10/20 00:40:14;;;;;;;0.20;0.20;;;;;;;14.57;100.00;100298.50;5084110;28;20413;-84
2021/10/20 00:42:47;;;;;;;0.20;0.20;;;;;;;14.57;100.00;100293.03;5081474;28;20219;-82
2021/10/20 00:45:21;;;;;;;0.20;0.20;;;;;;;14.66;100.00;100296.66;5078931;28;20047;-82
2021/10/20 00:47:54;;;;;;;0.20;0.20;;;;;;;14.49;100.00;100277.41;5083092;28;20043;-83
2021/10/20 00:50:23;;;;;;;0.20;0.20;;;;;;;14.41;100.00;100290.72;5082159;28;20059;-81
2021/10/20 00:52:58;;;;;;;0.20;0.20;;;;;;;14.22;100.00;100290.16;5090563;28;20048;-82
2021/10/20 00:55:31;;;;;;;0.20;0.20;;;;;;;14.12;100.00;100267.38;5102792;27;20059;-82
2021/10/20 00:58:00;;;;;;;0.20;0.20;;;;;;;14.19;100.00;100274.38;5086618;28;20044;-82
2021/10/20 01:00:34;;;;;;;0.20;0.20;;;;;;;14.15;100.00;100263.22;5090250;28;20063;-82
2021/10/20 01:03:07;;;;;;;0.20;0.20;;;;;;;14.02;100.00;100266.88;5079054;28;20043;-82
2021/10/20 01:05:41;;;;;;;0.32;0.20;;;;;;;13.96;100.00;100260.69;5090445;28;20040;-82
2021/10/20 01:08:15;;;;;;;0.20;0.20;;;;;;;13.88;100.00;100248.59;5093855;28;20059;-82
2021/10/20 01:10:48;;;;;;;0.20;0.20;;;;;;;13.83;100.00;100256.94;5091172;28;20491;-82
2021/10/20 01:13:16;;;;;;;0.68;0.20;;;;;;;13.82;100.00;100249.03;5089432;28;20060;-82
2021/10/20 01:15:49;;;;;;;0.20;0.20;;;;;;;13.64;100.00;100251.66;5074836;28;20055;-81
2021/10/20 01:18:22;;;;;;;0.20;0.20;;;;;;;13.64;100.00;100243.44;5074488;28;20064;-82
2021/10/20 01:20:59;;;;;;;0.20;0.20;;;;;;;13.76;100.00;100237.44;5078712;28;20052;-82
2021/10/20 01:23:33;;;;;;;0.20;0.20;;;;;;;13.59;100.00;100233.44;5109827;28;20373;-82
2021/10/20 01:26:07;;;;;;;0.20;0.20;;;;;;;13.47;100.00;100232.41;5080324;28;20032;-81
2021/10/20 01:28:40;;;;;;;0.20;0.20;;;;;;;13.43;100.00;100230.28;5071792;28;20052;-81
2021/10/20 01:31:13;;;;;;;0.20;0.20;;;;;;;13.37;100.00;100214.31;5084728;28;20040;-82
2021/10/20 01:33:46;;;;;;;0.20;0.20;;;;;;;13.49;100.00;100209.13;5084659;28;20048;-82
2021/10/20 01:36:19;;;;;;;0.28;0.28;;;;;;;13.44;100.00;100196.34;5093099;28;20040;-81
2021/10/20 01:38:54;;;;;;;0.20;0.20;;;;;;;13.54;100.00;100206.22;5088218;28;20039;-82
2021/10/20 01:41:28;;;;;;;0.20;0.20;;;;;;;13.41;100.00;100216.13;5089448;28;20048;-82
2021/10/20 01:44:02;;;;;;;0.30;0.30;;;;;;;13.30;100.00;100208.44;5079195;28;20053;-81
2021/10/20 01:46:30;;;;;;;0.20;0.20;;;;;;;13.26;100.00;100203.59;5086232;28;20059;-81
2021/10/20 01:49:03;;;;;;;0.20;0.20;;;;;;;13.29;100.00;100210.38;5083676;28;20049;-82
2021/10/20 01:51:37;;;;;;;0.20;0.20;;;;;;;13.35;100.00;100194.66;5073908;28;20048;-82
2021/10/20 01:54:13;;;;;;;0.20;0.20;;;;;;;13.37;100.00;100196.00;5090085;28;20059;-82
2021/10/20 01:56:47;;;;;;;0.20;0.20;;;;;;;13.32;100.00;100187.88;5095533;28;20052;-81
2021/10/20 01:59:21;;;;;;;0.20;0.20;;;;;;;13.25;100.00;100187.50;5088393;28;20722;-82
2021/10/20 02:01:54;;;;;;;0.20;0.20;;;;;;;13.21;100.00;100187.31;5075348;28;20060;-81
2021/10/20 02:04:27;;;;;;;0.20;0.20;;;;;;;13.20;100.00;100184.91;5076775;28;20048;-82
2021/10/20 02:06:55;;;;;;;0.17;0.17;;;;;;;13.21;100.00;100179.13;5074368;28;20049;-82
2021/10/20 02:09:30;;;;;;;0.20;0.20;;;;;;;13.24;100.00;100173.06;5090624;28;20048;-82
2021/10/20 02:12:03;;;;;;;0.20;0.20;;;;;;;13.23;100.00;100168.69;5081148;28;20051;-82
2021/10/20 02:14:37;;;;;;;0.20;0.20;;;;;;;13.17;100.00;100172.66;5092552;28;20082;-82
2021/10/20 02:17:11;;;;;;;0.20;0.20;;;;;;;13.21;100.00;100167.38;5092300;28;20055;-80
2021/10/20 02:19:44;;;;;;;0.20;0.20;;;;;;;13.20;100.00;100163.88;5089946;28;20052;-82
2021/10/20 02:22:17;;;;;;;0.20;0.20;;;;;;;13.19;100.00;100159.50;5088904;28;20052;-82
2021/10/20 02:24:51;;;;;;;0.20;0.20;;;;;;;13.12;100.00;100145.47;5086940;28;20052;-82
2021/10/20 02:27:20;;;;;;;0.20;0.20;;;;;;;13.08;100.00;100147.22;5086009;28;20071;-82
2021/10/20 02:29:53;;;;;;;0.20;0.20;;;;;;;13.14;100.00;100148.69;5089996;28;20047;-81
2021/10/20 02:32:26;;;;;;;0.20;0.20;;;;;;;13.03;100.00;100141.88;5088664;28;20075;-82
2021/10/20 02:34:59;;;;;;;0.30;0.30;;;;;;;13.13;100.00;100136.13;5081773;28;20576;-82
2021/10/20 02:37:33;;;;;;;0.20;0.20;;;;;;;13.03;100.00;100123.53;5086016;28;20036;-82
2021/10/20 02:40:09;;;;;;;0.20;0.20;;;;;;;13.05;100.00;100121.31;5083610;28;20052;-82
2021/10/20 02:42:43;;;;;;;0.20;0.20;;;;;;;13.05;100.00;100125.97;5081999;28;20051;-82
2021/10/20 02:45:17;;;;;;;0.20;0.20;;;;;;;13.06;100.00;100111.19;5083752;28;20412;-82
2021/10/20 02:47:50;;;;;;;0.20;0.20;;;;;;;13.00;100.00;100109.72;5087939;28;20380;-82
2021/10/20 02:50:28;;;;;;;0.20;0.20;;;;;;;12.95;100.00;100112.56;5084982;28;20071;-82
2021/10/20 02:53:01;;;;;;;0.30;0.30;;;;;;;12.97;100.00;100107.56;5084067;28;20629;-82
2021/10/20 02:55:39;;;;;;;0.20;0.20;;;;;;;12.88;100.00;100111.03;5085050;28;20044;-82
2021/10/20 02:58:13;;;;;;;0.20;0.20;;;;;;;12.95;100.00;100107.88;5082973;28;20439;-82
2021/10/20 03:00:46;;;;;;;0.20;0.20;;;;;;;12.93;100.00;100104.69;5094699;28;20048;-83
2021/10/20 03:03:19;;;;;;;0.20;0.20;;;;;;;12.84;100.00;100112.81;5084150;28;20055;-82
2021/10/20 03:05:52;;;;;;;0.20;0.20;;;;;;;12.96;100.00;100106.78;5084923;28;20492;-81
2021/10/20 03:08:25;;;;;;;0.20;0.20;;;;;;;12.97;100.00;100110.31;5084619;28;20068;-82
2021/10/20 03:11:00;;;;;;;0.20;0.20;;;;;;;12.92;100.00;100103.84;5088847;28;20055;-82
2021/10/20 03:13:33;;;;;;;0.20;0.20;;;;;;;12.87;100.00;100098.53;5082684;28;20348;-81
2021/10/20 03:16:01;;;;;;;0.20;0.20;;;;;;;12.86;100.00;100096.13;5080221;28;20400;-82
2021/10/20 03:18:35;;;;;;;0.20;0.20;;;;;;;12.79;100.00;100091.09;5083790;28;20044;-81
2021/10/20 03:21:08;;;;;;;0.20;0.20;;;;;;;12.83;100.00;100091.25;5085878;28;20055;-82
2021/10/20 03:23:41;;;;;;;0.20;0.20;;;;;;;12.80;100.00;100086.41;5086387;28;21020;-83
2021/10/20 03:26:16;;;;;;;0.17;0.17;;;;;;;12.68;100.00;100086.97;5087401;28;20044;-82
2021/10/20 03:28:49;;;;;;;0.20;0.20;;;;;;;12.72;100.00;100085.25;5085793;28;20063;-83
2021/10/20 03:31:22;;;;;;;0.20;0.20;;;;;;;12.70;100.00;100080.06;5086655;28;20391;-82
2021/10/20 03:33:50;;;;;;;0.20;0.20;;;;;;;12.62;100.00;100088.19;5084815;28;20055;-82
2021/10/20 03:36:19;;;;;;;0.20;0.20;;;;;;;12.62;100.00;100080.00;5103005;28;20532;-81
2021/10/20 03:38:52;;;;;;;0.20;0.20;;;;;;;12.52;100.00;100073.66;5081944;28;20686;-82
2021/10/20 03:41:27;;;;;;;0.20;0.20;;;;;;;12.58;100.00;100072.44;5085902;28;20048;-81
2021/10/20 03:44:00;;;;;;;0.20;0.20;;;;;;;12.50;100.00;100075.91;5083701;28;20052;-83
2021/10/20 03:46:33;;;;;;;0.20;0.20;;;;;;;12.38;100.00;100067.44;5082903;28;20052;-83
2021/10/20 03:49:06;;;;;;;0.20;0.20;;;;;;;12.42;100.00;100074.69;5085035;28;20037;-83
2021/10/20 03:51:39;;;;;;;0.20;0.20;;;;;;;12.41;100.00;100078.56;5080888;28;20075;-83
2021/10/20 03:54:13;;;;;;;0.20;0.20;;;;;;;12.40;100.00;100076.13;5084766;28;20071;-83
2021/10/20 03:56:47;;;;;;;0.20;0.20;;;;;;;12.35;100.00;100070.78;5088089;28;20044;-82
2021/10/20 03:59:20;;;;;;;0.20;0.20;;;;;;;12.23;100.00;100071.31;5087400;28;20040;-82
2021/10/20 04:01:53;;;;;;;0.20;0.20;;;;;;;12.25;100.00;100052.72;5083625;28;20058;-82
2021/10/20 04:04:26;;;;;;;0.22;0.22;;;;;;;12.21;100.00;100049.78;5087260;28;20040;-83
2021/10/20 04:07:00;;;;;;;0.20;0.20;;;;;;;12.37;100.00;100044.00;5083768;28;20047;-82
2021/10/20 04:09:33;;;;;;;0.20;0.20;;;;;;;12.28;100.00;100045.81;5081429;28;20048;-82
2021/10/20 04:12:08;;;;;;;0.20;0.20;;;;;;;12.21;100.00;100035.34;5081426;28;20407;-82
2021/10/20 04:14:41;;;;;;;0.10;0.10;;;;;;;12.17;100.00;100028.91;5097499;28;20506;-83
2021/10/20 04:17:14;;;;;;;0.20;0.20;;;;;;;12.14;100.00;100026.75;5098792;28;20075;-82
2021/10/20 04:19:47;;;;;;;0.20;0.20;;;;;;;12.13;100.00;100017.78;5086630;28;20787;-83
2021/10/20 04:22:16;;;;;;;0.20;0.20;;;;;;;12.15;100.00;100012.00;5089659;28;20044;-83
2021/10/20 04:24:49;;;;;;;0.20;0.20;;;;;;;12.14;100.00;100013.94;5086683;28;20051;-82
2021/10/20 04:27:20;;;;;;;0.20;0.20;;;;;;;12.16;100.00;99998.06;5100378;28;20052;-83
2021/10/20 04:29:54;;;;;;;0.20;0.20;;;;;;;12.19;100.00;100002.09;5102982;28;20052;-82
2021/10/20 04:32:23;;;;;;;0.20;0.20;;;;;;;12.11;100.00;99995.47;5088965;28;20676;-83
2021/10/20 04:34:56;;;;;;;0.20;0.20;;;;;;;12.28;100.00;99992.09;5103511;28;20055;-83
2021/10/20 04:37:29;;;;;;;0.30;0.30;;;;;;;12.20;100.00;99984.63;5086497;28;20052;-83
2021/10/20 04:40:05;;;;;;;0.20;0.20;;;;;;;12.12;100.00;99983.44;5086635;28;20521;-82
2021/10/20 04:42:40;;;;;;;0.20;0.20;;;;;;;12.03;100.00;99979.84;5088960;28;20388;-82
2021/10/20 04:45:13;;;;;;;0.20;0.20;;;;;;;12.12;100.00;99988.09;5087571;28;20051;-83
2021/10/20 04:47:41;;;;;;;0.20;0.20;;;;;;;12.03;100.00;99977.13;5090589;28;20051;-82
2021/10/20 04:50:10;;;;;;;0.20;0.20;;;;;;;12.03;100.00;99977.13;5089823;28;20047;-82
2021/10/20 04:52:43;;;;;;;0.20;0.20;;;;;;;12.06;100.00;99960.91;5089985;28;20048;-80
2021/10/20 04:55:16;;;;;;;0.20;0.20;;;;;;;11.98;100.00;99971.75;5086864;28;20485;-81
2021/10/20 04:57:52;;;;;;;0.20;0.20;;;;;;;12.02;100.00;99968.09;5088642;28;20526;-82
2021/10/20 05:00:23;;;;;;;0.20;0.20;;;;;;;12.05;100.00;99972.13;5087025;28;20039;-81
2021/10/20 05:02:56;;;;;;;0.20;0.20;;;;;;;12.00;100.00;99970.34;5080302;28;20044;-81
2021/10/20 05:05:30;;;;;;;0.20;0.20;;;;;;;12.08;100.00;99971.53;5090082;28;20051;-83
2021/10/20 05:07:59;;;;;;;0.20;0.20;;;;;;;12.06;100.00;99965.59;5088242;28;20048;-80
2021/10/20 05:10:33;;;;;;;0.20;0.20;;;;;;;11.97;100.00;99956.50;5087253;28;20176;-81
2021/10/20 05:13:02;;;;;;;0.20;0.20;;;;;;;11.99;100.00;99959.75;5086337;28;20060;-81
2021/10/20 05:15:30;;;;;;;0.20;0.20;;;;;;;11.97;100.00;99959.22;5103556;28;20514;-81
2021/10/20 05:17:59;;;;;;;0.20;0.20;;;;;;;12.02;100.00;99964.59;5092459;28;20043;-81
2021/10/20 05:20:32;;;;;;;0.20;0.20;;;;;;;12.04;100.00;99951.44;5094156;28;20048;-81
2021/10/20 05:23:05;;;;;;;0.20;0.20;;;;;;;12.03;100.00;99947.91;5089435;28;20044;-81
2021/10/20 05:25:38;;;;;;;0.20;0.20;;;;;;;11.99;100.00;99937.94;5089691;28;20037;-81
2021/10/20 05:28:13;;;;;;;0.20;0.20;;;;;;;12.02;100.00;99932.66;5088626;28;20048;-81
2021/10/20 05:30:46;;;;;;;0.20;0.20;;;;;;;11.99;100.00;99933.28;5089387;28;20056;-85
2021/10/20 05:33:19;;;;;;;0.20;0.20;;;;;;;11.93;100.00;99928.22;5081249;28;20048;-78
2021/10/20 05:35:52;;;;;;;0.20;0.20;;;;;;;11.98;100.00;99920.75;5088537;28;20591;-79
2021/10/20 05:38:25;;;;;;;0.20;0.20;;;;;;;11.88;100.00;99921.75;5087555;28;20380;-80
2021/10/20 05:40:59;;;;;;;0.20;0.20;;;;;;;11.91;100.00;99914.88;5088010;28;20047;-79
2021/10/20 05:43:28;;;;;;;0.20;0.20;;;;;;;11.94;100.00;99913.47;5101710;28;20058;-79
2021/10/20 05:46:01;;;;;;;0.20;0.20;;;;;;;12.07;100.00;99901.75;5086948;28;20396;-79
2021/10/20 05:48:35;;;;;;;0.20;0.20;;;;;;;12.02;100.00;99894.47;5096935;28;20492;-80
2021/10/20 05:51:08;;;;;;;0.20;0.20;;;;;;;12.04;100.00;99897.72;5084498;28;20044;-79
2021/10/20 05:53:41;;;;;;;0.20;0.20;;;;;;;12.02;100.00;99886.28;5087979;28;20063;-79
2021/10/20 05:56:14;;;;;;;0.20;0.20;;;;;;;11.89;100.00;99878.94;5085723;28;20055;-81
2021/10/20 05:58:49;;;;;;;0.20;0.20;;;;;;;11.91;100.00;99893.88;5067517;28;20067;-81
2021/10/20 06:01:23;;;;;;;0.20;0.20;;;;;;;11.93;100.00;99871.75;5066285;28;21516;-80
2021/10/20 06:03:56;;;;;;;0.20;0.20;;;;;;;12.01;100.00;99875.69;5060522;28;20052;-81
2021/10/20 06:06:26;;;;;;;0.20;0.20;;;;;;;12.05;100.00;99872.03;5060069;28;20695;-82
2021/10/20 06:08:59;;;;;;;0.20;0.20;;;;;;;12.14;100.00;99871.28;5063803;28;20040;-80
2021/10/20 06:11:32;;;;;;;0.20;0.20;;;;;;;12.02;100.00;99878.13;5054050;28;20043;-81
2021/10/20 06:14:07;;;;;;;0.20;0.20;;;;;;;12.09;100.00;99880.41;5051533;28;20047;-82
2021/10/20 06:16:41;;;;;;;0.20;0.20;;;;;;;11.92;100.00;99856.53;5051794;28;20056;-81
2021/10/20 06:19:15;;;;;;;0.25;0.25;;;;;;;12.05;100.00;99858.41;5053308;28;20052;-82
2021/10/20 06:21:48;;;;;;;0.20;0.20;;;;;;;12.15;100.00;99868.28;5052801;28;20048;-81
2021/10/20 06:24:21;;;;;;;0.20;0.20;;;;;;;12.17;100.00;99873.41;5063356;28;20048;-81
2021/10/20 06:26:54;;;;;;;0.30;0.30;;;;;;;12.18;100.00;99866.81;5069822;28;20055;-81
2021/10/20 06:29:29;;;;;;;0.20;0.20;;;;;;;12.21;100.00;99863.50;5071682;28;20051;-81
2021/10/20 06:32:02;;;;;;;0.30;0.30;;;;;;;12.14;100.00;99850.28;5060574;28;20106;-83
2021/10/20 06:34:36;;;;;;;0.20;0.20;;;;;;;12.15;100.00;99851.09;5072322;28;20049;-81
2021/10/20 06:37:04;;;;;;;0.20;0.20;;;;;;;12.09;100.00;99842.22;5080802;28;20056;-80
2021/10/20 06:39:32;;;;;;;0.20;0.20;;;;;;;12.16;100.00;99849.97;5064347;28;20051;-80
2021/10/20 06:42:06;;;;;;;0.20;0.20;;;;;;;12.20;100.00;99848.25;5055312;28;20835;-82
2021/10/20 06:44:35;;;;;;;0.10;0.10;;;;;;;12.17;100.00;99857.06;5061871;28;20067;-80
2021/10/20 06:47:04;;;;;;;0.20;0.20;;;;;;;12.24;100.00;99850.03;5054196;28;20119;-81
2021/10/20 06:49:37;;;;;;;0.20;0.20;;;;;;;12.20;100.00;99842.78;5057017;28;20625;-81
2021/10/20 06:52:10;;;;;;;0.20;0.20;;;;;;;12.19;100.00;99838.44;5052090;28;20053;-82
2021/10/20 06:54:38;;;;;;;0.28;0.28;;;;;;;12.18;100.00;99839.56;5059060;28;20048;-81
2021/10/20 06:57:06;;;;;;;0.20;0.20;;;;;;;12.25;100.00;99835.28;5051079;28;20059;-81
2021/10/20 06:59:36;;;;;;;0.20;0.20;;;;;;;12.33;100.00;99827.44;5077523;28;20044;-81
2021/10/20 07:02:09;;;;;;;0.20;0.20;;;;;;;12.33;100.00;99828.28;5054020;28;20433;-81
2021/10/20 07:04:43;;;;;;;0.20;0.20;;;;;;;12.30;100.00;99820.69;5056733;28;20746;-82
2021/10/20 07:07:16;;;;;;;0.20;0.20;;;;;;;12.34;100.00;99816.22;5055096;28;20059;-82
2021/10/20 07:09:44;;;;;;;0.20;0.20;;;;;;;12.30;100.00;99806.25;5051110;28;20060;-82
2021/10/20 07:12:18;;;;;;;0.20;0.20;;;;;;;12.30;100.00;99796.13;5057074;28;20067;-83
2021/10/20 07:14:52;;;;;;;0.20;0.20;;;;;;;12.39;100.00;99794.28;5054074;28;20828;-82
2021/10/20 07:17:26;;;;;;;0.20;0.20;;;;;;;12.32;100.00;99801.28;5056207;28;20409;-82
2021/10/20 07:19:54;;;;;;;0.20;0.20;;;;;;;12.38;100.00;99797.31;5060577;28;20044;-83
2021/10/20 07:22:22;;;;;;;0.20;0.20;;;;;;;12.29;100.00;99789.09;5062753;28;20056;-81
2021/10/20 07:24:55;;;;;;;0.20;0.20;;;;;;;12.35;100.00;99785.09;5059783;28;20052;-82
2021/10/20 07:27:29;;;;;;;0.20;0.20;;;;;;;12.39;100.00;99794.28;5057120;28;20052;-81
2021/10/20 07:29:59;;;;;;;0.20;0.20;;;;;;;12.29;100.00;99796.44;5051768;28;20423;-83
2021/10/20 07:32:32;;;;;;;0.30;0.30;;;;;;;12.40;100.00;99792.34;5050621;28;20060;-82
2021/10/20 07:35:06;;;;;;;0.20;0.20;;;;;;;12.50;100.00;99778.44;5053754;28;20063;-82
2021/10/20 07:37:40;;;;;;;0.20;0.20;;;;;;;12.48;100.00;99779.84;5058597;28;20047;-82
2021/10/20 07:40:10;;;;;;;0.20;0.20;;;;;;;12.50;100.00;99775.69;5057875;28;20408;-81
2021/10/20 07:42:45;;;;;;;0.20;0.20;;;;;;;12.68;100.00;99762.13;5050578;28;20047;-82
2021/10/20 07:45:20;;;;;;;0.20;0.20;;;;;;;12.58;100.00;99755.81;5049579;28;20720;-82
2021/10/20 07:47:53;;;;;;;0.20;0.20;;;;;;;12.63;100.00;99756.81;5066307;28;20055;-82
2021/10/20 07:50:27;;;;;;;0.20;0.20;;;;;;;12.69;100.00;99736.41;5052473;28;20040;-81
2021/10/20 07:53:00;;;;;;;0.30;0.30;;;;;;;12.69;100.00;99761.81;5057176;28;20052;-82
2021/10/20 07:55:29;;;;;;;0.30;0.30;;;;;;;12.73;100.00;99743.66;5076451;28;20055;-81
2021/10/20 07:58:02;;;;;;;0.20;0.20;;;;;;;12.74;100.00;99744.47;5072735;28;20056;-82
2021/10/20 08:00:37;;;;;;;0.20;0.20;;;;;;;12.67;100.00;99749.59;5059763;28;20049;-81
2021/10/20 08:03:10;;;;;;;0.20;0.20;;;;;;;12.75;100.00;99735.16;5073872;28;20055;-81
2021/10/20 08:05:43;;;;;;;0.20;0.20;;;;;;;12.70;100.00;99740.75;5064958;28;20049;-81
2021/10/20 08:08:16;;;;;;;0.20;0.20;;;;;;;12.70;100.00;99716.97;5064432;28;20059;-81
2021/10/20 08:10:49;;;;;;;0.20;0.20;;;;;;;12.77;100.00;99716.53;5069781;28;20048;-82
2021/10/20 08:13:22;;;;;;;0.20;0.20;;;;;;;12.80;100.00;99717.81;5062233;28;20052;-82
2021/10/20 08:15:57;;;;;;;0.20;0.20;;;;;;;12.79;100.00;99713.47;5063465;28;20443;-83
2021/10/20 08:18:30;;;;;;;0.20;0.20;;;;;;;12.82;100.00;99702.72;5065106;28;20056;-82
2021/10/20 08:21:03;;;;;;;0.30;0.30;;;;;;;12.86;100.00;99703.69;5052758;28;20051;-82
2021/10/20 08:23:37;;;;;;;0.30;0.30;;;;;;;12.88;100.00;99700.66;5057896;28;20044;-82
2021/10/20 08:26:10;;;;;;;0.30;0.30;;;;;;;12.88;100.00;99695.97;5061098;28;20055;-83
2021/10/20 08:28:44;;;;;;;0.20;0.20;;;;;;;12.92;100.00;99683.28;5066650;28;20504;-81
2021/10/20 08:31:19;;;;;;;0.20;0.20;;;;;;;13.07;100.00;99671.09;5070141;28;20063;-82
2021/10/20 08:33:47;;;;;;;0.20;0.20;;;;;;;13.09;100.00;99670.78;5057333;28;20064;-83
2021/10/20 08:36:20;;;;;;;0.20;0.20;;;;;;;13.17;100.00;99674.63;5061973;28;20056;-81
2021/10/20 08:38:48;;;;;;;0.20;0.20;;;;;;;13.25;100.00;99662.91;5066111;28;20064;-82
2021/10/20 08:41:24;;;;;;;0.20;0.20;;;;;;;13.41;100.00;99658.56;5053201;28;20396;-83
2021/10/20 08:43:53;;;;;;;0.30;0.30;;;;;;;13.43;100.00;99658.25;5058399;28;20056;-80
2021/10/20 08:46:28;;;;;;;0.20;0.20;;;;;;;13.40;100.00;99656.16;5052829;28;20484;-81
2021/10/20 08:49:04;;;;;;;0.20;0.20;;;;;;;13.38;100.00;99644.75;5069096;28;20047;-81
2021/10/20 08:51:37;;;;;;;0.20;0.20;;;;;;;13.39;100.00;99652.63;5086994;28;20067;-81
2021/10/20 08:54:10;;;;;;;0.20;0.20;;;;;;;13.41;100.00;99646.84;5054933;28;21302;-83
2021/10/20 08:56:43;;;;;;;0.20;0.20;;;;;;;13.37;100.00;99652.16;5074990;28;20064;-81
2021/10/20 08:59:18;;;;;;;0.20;0.20;;;;;;;13.58;100.00;99648.75;5060551;28;20051;-82
2021/10/20 09:01:53;;;;;;;0.22;0.22;;;;;;;13.48;100.00;99643.59;5060868;28;20055;-81
2021/10/20 09:04:22;;;;;;;0.20;0.20;;;;;;;13.70;100.00;99631.66;5059763;28;20063;-82
2021/10/20 09:06:58;;;;;;;0.28;0.28;;;;;;;13.64;100.00;99630.22;5056163;28;20066;-81
2021/10/20 09:09:33;;;;;;;0.20;0.20;;;;;;;13.63;100.00;99618.50;5061137;28;20048;-82
2021/10/20 09:12:06;;;;;;;0.20;0.20;;;;;;;13.65;100.00;99608.03;5060920;28;20306;-82
2021/10/20 09:14:41;;;;;;;0.20;0.20;;;;;;;13.70;100.00;99594.19;5053269;28;20049;-82
2021/10/20 09:17:15;;;;;;;0.20;0.20;;;;;;;13.80;100.00;99603.16;5056902;28;20063;-81
2021/10/20 09:19:48;;;;;;;0.20;0.20;;;;;;;13.82;100.00;99600.91;5056738;28;20478;-82
2021/10/20 09:22:22;;;;;;;0.20;0.20;;;;;;;13.95;100.00;99576.06;5071562;28;20052;-82
2021/10/20 09:24:55;;;;;;;0.30;0.30;;;;;;;13.91;100.00;99566.13;5058623;28;20052;-82
2021/10/20 09:27:29;;;;;;;0.20;0.20;;;;;;;13.97;100.00;99572.19;5066456;28;20060;-81
2021/10/20 09:30:09;;;;;;;0.20;0.20;;;;;;;13.97;100.00;99555.78;5054865;28;20060;-81
2021/10/20 09:32:43;;;;;;;0.20;0.20;;;;;;;13.89;100.00;99541.84;5059280;28;20051;-80
2021/10/20 09:35:17;;;;;;;0.20;0.20;;;;;;;14.17;100.00;99540.53;5073401;28;20070;-81
2021/10/20 09:37:58;;;;;;;0.20;0.20;;;;;;;14.08;100.00;99518.69;5058022;28;21261;-81
2021/10/20 09:40:38;;;;;;;0.30;0.30;;;;;;;14.23;100.00;99509.91;5054578;28;21216;-81
2021/10/20 09:43:07;;;;;;;0.20;0.20;;;;;;;14.35;100.00;99533.81;5055482;28;20057;-81
2021/10/20 09:45:42;;;;;;;0.20;0.20;;;;;;;14.34;100.00;99536.88;5060831;28;20098;-80
2021/10/20 09:48:15;;;;;;;0.10;0.10;;;;;;;14.40;100.00;99533.63;5061257;28;20903;-80
2021/10/20 09:51:02;;;;;;;0.20;0.20;;;;;;;14.40;100.00;99528.16;5057922;28;20067;-85
2021/10/20 09:53:32;;;;;;;0.20;0.20;;;;;;;14.43;100.00;99543.91;5063542;28;20491;-81
2021/10/20 09:56:03;;;;;;;0.28;0.28;;;;;;;14.44;100.00;99520.06;5063760;28;20056;-81
2021/10/20 09:58:36;;;;;;;0.30;0.30;;;;;;;14.60;100.00;99523.78;5053363;28;20048;-80
2021/10/20 10:01:09;;;;;;;0.20;0.20;;;;;;;14.61;100.00;99528.13;5054315;28;20550;-83
2021/10/20 10:03:40;;;;;;;0.20;0.20;;;;;;;14.69;100.00;99531.94;5075416;28;20056;-82
2021/10/20 10:06:08;;;;;;;0.20;0.20;;;;;;;14.77;100.00;99530.28;5057599;28;20056;-81
2021/10/20 10:08:42;;;;;;;0.20;0.20;;;;;;;14.94;100.00;99530.13;5059881;28;20064;-82
2021/10/20 10:11:15;;;;;;;0.20;0.20;;;;;;;15.26;100.00;99515.91;5063350;28;20048;-82
2021/10/20 10:13:52;;;;;;;0.20;0.20;;;;;;;15.44;100.00;99531.03;5054112;28;20052;-81
2021/10/20 10:16:27;;;;;;;0.20;0.20;;;;;;;15.43;100.00;99520.41;5058272;28;20052;-81
2021/10/20 10:19:02;;;;;;;0.20;0.20;;;;;;;15.60;100.00;99511.16;5054748;28;20063;-80
2021/10/20 10:21:37;;;;;;;0.20;0.20;;;;;;;15.64;100.00;99499.16;5053892;28;20051;-81
2021/10/20 10:24:13;;;;;;;0.20;0.20;;;;;;;15.72;100.00;99499.41;5061598;28;20057;-81
2021/10/20 10:27:01;;;;;;;0.20;0.20;;;;;;;15.75;100.00;99494.00;5060692;28;20059;-82
2021/10/20 10:29:47;;;;;;;0.20;0.20;;;;;;;15.71;100.00;99484.09;5061769;28;20067;-82
2021/10/20 10:32:22;;;;;;;0.20;0.20;;;;;;;15.75;100.00;99458.34;5055021;28;20059;-82
2021/10/20 10:34:57;;;;;;;0.20;0.20;;;;;;;15.67;100.00;99425.56;5058257;28;20045;-82
2021/10/20 10:37:32;;;;;;;0.22;0.22;;;;;;;16.14;100.00;99445.06;5060482;28;20944;-83
2021/10/20 10:40:03;;;;;;;0.20;0.20;;;;;;;16.17;100.00;99437.25;5057497;28;20067;-84
2021/10/20 10:42:39;;;;;;;0.20;0.20;;;;;;;16.17;100.00;99431.78;5068504;28;20638;-82
2021/10/20 10:45:14;;;;;;;0.23;0.23;;;;;;;16.32;100.00;99436.53;5061862;28;20060;-82
2021/10/20 10:47:58;;;;;;;0.20;0.20;;;;;;;16.47;100.00;99419.31;5059272;28;20059;-82
2021/10/20 10:50:42;;;;;;;0.20;0.20;;;;;;;16.30;100.00;99425.09;5059924;28;20051;-80
2021/10/20 10:53:29;;;;;;;0.20;0.20;;;;;;;16.01;100.00;99426.22;5061344;28;20052;-81
2021/10/20 10:56:06;;;;;;;0.20;0.20;;;;;;;15.88;100.00;99414.47;5060544;28;20064;-80
2021/10/20 10:58:57;;;;;;;0.20;0.20;;;;;;;15.68;100.00;99418.94;5063781;28;20063;-81
2021/10/20 11:01:43;;;;;;;0.20;0.20;;;;;;;15.76;100.00;99421.56;5061322;28;20060;-81
2021/10/20 11:04:19;;;;;;;0.20;0.20;;;;;;;15.56;100.00;99426.03;5060808;28;20051;-82
2021/10/20 11:06:56;;;;;;;0.20;0.20;;;;;;;15.39;100.00;99443.53;5049780;28;20412;-81
2021/10/20 11:09:32;;;;;;;0.20;0.20;;;;;;;15.34;100.00;99454.69;5059701;28;20059;-81
2021/10/20 11:12:02;;;;;;;0.20;0.20;;;;;;;15.23;100.00;99451.63;5059278;28;20526;-81
2021/10/20 11:14:32;;;;;;;0.30;0.30;;;;;;;15.16;100.00;99423.97;5055104;28;20059;-81
2021/10/20 11:17:07;;;;;;;0.20;0.20;;;;;;;15.19;100.00;99415.09;5058243;28;20062;-81
2021/10/20 11:19:40;;;;;;;0.20;0.20;;;;;;;15.20;100.00;99427.63;5055999;28;20059;-81
2021/10/20 11:22:10;;;;;;;0.20;0.20;;;;;;;15.13;100.00;99428.22;5048620;28;20078;-81
2021/10/20 11:24:45;;;;;;;0.20;0.20;;;;;;;15.13;100.00;99430.97;5058395;28;20775;-81
2021/10/20 11:27:14;;;;;;;0.20;0.20;;;;;;;15.03;100.00;99431.38;5050523;28;20056;-81
2021/10/20 11:29:49;;;;;;;0.20;0.20;;;;;;;15.05;100.00;99426.38;5059501;28;20056;-80
2021/10/20 11:32:23;;;;;;;0.20;0.20;;;;;;;15.02;100.00;99418.81;5055466;28;20520;-82
2021/10/20 11:34:57;;;;;;;0.10;0.10;;;;;;;15.16;100.00;99423.19;5052858;28;20055;-81
2021/10/20 11:37:27;;;;;;;0.20;0.20;;;;;;;15.03;100.00;99401.25;5041708;28;20416;-82
2021/10/20 11:40:03;;;;;;;0.20;0.20;;;;;;;15.07;100.00;99398.66;5056419;28;20051;-80
2021/10/20 11:42:33;;;;;;;0.20;0.20;;;;;;;15.03;100.00;99384.81;5054448;28;20048;-80
2021/10/20 11:45:06;;;;;;;0.20;0.20;;;;;;;15.14;100.00;99390.66;5056620;28;20062;-81
2021/10/20 11:47:41;;;;;;;0.20;0.20;;;;;;;15.08;100.00;99386.53;5059600;28;20047;-81
2021/10/20 11:50:16;;;;;;;0.20;0.20;;;;;;;14.95;100.00;99375.56;5054782;28;20048;-81